Time;durP1;ratioP1;P1;durP2;ratioP2;P2;SDS_P1;SDS_P2;PMS_P1;PMS_P2;Temp;Humidity;BMP_temperature;BMP_pressure;BME280_temperature;BME280_humidity;BME280_pressure;Samples;Min_cycle;Max_cycle;Signal;HPM_P1;HPM_P2
2022/12/14 00:00:47;;;;;;;0.10;0.10;;;-1.80;99.90;;;;;;5069995;28;20323;-80
2022/12/14 00:03:13;;;;;;;0.10;0.10;;;-1.80;99.90;;;;;;5071329;28;20226;-80
2022/12/14 00:05:39;;;;;;;2.27;2.20;;;-1.80;99.90;;;;;;5072876;28;20198;-80
2022/12/14 00:08:05;;;;;;;0.10;0.10;;;-1.80;99.90;;;;;;5055876;28;20693;-80
2022/12/14 00:10:32;;;;;;;0.10;0.10;;;-1.80;99.90;;;;;;5067726;28;20280;-80
2022/12/14 00:12:58;;;;;;;0.50;0.50;;;-1.80;99.90;;;;;;5070970;28;20196;-80
2022/12/14 00:15:24;;;;;;;0.10;0.10;;;-1.80;99.90;;;;;;5071720;28;20186;-79
2022/12/14 00:17:49;;;;;;;0.00;0.00;;;-1.80;99.90;;;;;;5071950;28;20752;-79
2022/12/14 00:20:15;;;;;;;0.00;0.00;;;-1.80;99.90;;;;;;5072039;28;20216;-81
2022/12/14 00:22:40;;;;;;;0.10;0.10;;;-1.80;99.90;;;;;;5071656;28;20196;-80
2022/12/14 00:25:06;;;;;;;0.10;0.10;;;-1.80;99.90;;;;;;5070058;28;20216;-80
2022/12/14 00:27:32;;;;;;;0.10;0.10;;;-1.70;99.90;;;;;;5054918;28;20215;-80
2022/12/14 00:29:58;;;;;;;0.10;0.10;;;-1.80;99.90;;;;;;5068454;28;20190;-80
2022/12/14 00:32:23;;;;;;;0.10;0.10;;;-1.70;99.90;;;;;;5067683;28;20546;-80
2022/12/14 00:34:49;;;;;;;0.10;0.10;;;-1.80;99.90;;;;;;5068955;28;20201;-79
2022/12/14 00:37:14;;;;;;;0.10;0.10;;;-1.90;99.90;;;;;;5052859;28;20209;-79
2022/12/14 00:39:40;;;;;;;0.00;0.00;;;-1.80;99.90;;;;;;5071595;28;21135;-80
2022/12/14 00:42:06;;;;;;;0.10;0.10;;;-1.80;99.90;;;;;;5054771;28;20947;-80
2022/12/14 00:44:32;;;;;;;0.00;0.00;;;-1.80;99.90;;;;;;5054444;28;20205;-80
2022/12/14 00:46:57;;;;;;;0.10;0.10;;;-1.70;99.90;;;;;;5055207;28;20217;-79
2022/12/14 00:49:23;;;;;;;0.10;0.10;;;-1.80;99.90;;;;;;5069823;28;20185;-79
2022/12/14 00:51:48;;;;;;;0.10;0.10;;;-1.70;99.90;;;;;;5053930;28;20193;-79
2022/12/14 00:54:14;;;;;;;0.10;0.10;;;-1.80;99.90;;;;;;5057594;28;20275;-79
2022/12/14 00:56:40;;;;;;;0.10;0.10;;;-1.80;99.90;;;;;;5072005;28;20284;-81
2022/12/14 00:59:05;;;;;;;0.10;0.10;;;-1.70;99.90;;;;;;5075650;28;20563;-80
2022/12/14 01:01:31;;;;;;;0.00;0.00;;;-1.80;99.90;;;;;;5074195;28;20182;-80
2022/12/14 01:06:42;;;;;;;0.10;0.10;;;-1.80;99.90;;;;;;5057596;28;20225;-80
2022/12/14 01:09:08;;;;;;;0.10;0.10;;;-1.70;99.90;;;;;;5074520;28;20218;-80
2022/12/14 01:11:33;;;;;;;0.10;0.10;;;-1.80;99.90;;;;;;5075108;28;20866;-80
2022/12/14 01:13:59;;;;;;;0.03;0.03;;;-1.80;99.90;;;;;;5074462;28;20397;-80
2022/12/14 01:16:24;;;;;;;0.10;0.10;;;-1.70;99.90;;;;;;5076942;28;20189;-81
2022/12/14 01:18:50;;;;;;;0.00;0.00;;;-1.80;99.90;;;;;;5073274;28;20208;-80
2022/12/14 01:21:21;;;;;;;0.10;0.10;;;-1.70;99.90;;;;;;5073509;28;20565;-80
2022/12/14 01:23:51;;;;;;;0.10;0.10;;;-1.70;99.90;;;;;;5057169;28;20203;-80
2022/12/14 01:26:17;;;;;;;0.03;0.03;;;-1.70;99.90;;;;;;5073174;28;20186;-80
2022/12/14 01:28:44;;;;;;;0.10;0.10;;;-1.70;99.90;;;;;;5074595;28;20217;-80
2022/12/14 01:31:13;;;;;;;0.20;0.20;;;-1.70;99.90;;;;;;5074199;28;21290;-80
2022/12/14 01:33:39;;;;;;;0.47;0.47;;;-1.70;99.90;;;;;;5073791;28;20262;-79
2022/12/14 01:36:19;;;;;;;0.10;0.10;;;-1.70;99.90;;;;;;5059153;28;20593;-80
2022/12/14 01:38:45;;;;;;;0.10;0.10;;;-1.70;99.90;;;;;;5075692;28;20300;-80
2022/12/14 01:41:21;;;;;;;0.10;0.10;;;-1.70;99.90;;;;;;5074522;28;20195;-80
2022/12/14 01:43:55;;;;;;;0.13;0.13;;;-1.70;99.90;;;;;;5074912;28;20191;-80
2022/12/14 01:46:42;;;;;;;0.20;0.20;;;-1.70;99.90;;;;;;5074242;28;20548;-79
2022/12/14 01:49:29;;;;;;;0.10;0.10;;;-1.70;99.90;;;;;;5072801;28;20239;-80
2022/12/14 01:52:10;;;;;;;0.10;0.10;;;-1.70;99.90;;;;;;5075536;28;20196;-79
2022/12/14 01:55:00;;;;;;;0.00;0.00;;;-1.70;99.90;;;;;;5073298;28;20178;-80
2022/12/14 01:57:41;;;;;;;0.10;0.10;;;-1.80;99.90;;;;;;5069726;28;20674;-80
2022/12/14 02:00:08;;;;;;;0.10;0.10;;;-1.70;99.90;;;;;;5055993;28;20733;-81
2022/12/14 02:02:36;;;;;;;0.10;0.10;;;-1.70;99.90;;;;;;5056892;28;20182;-80
2022/12/14 02:05:06;;;;;;;0.10;0.10;;;-1.70;99.90;;;;;;5056999;28;20216;-80
2022/12/14 02:07:32;;;;;;;0.10;0.10;;;-1.70;99.90;;;;;;5056749;28;20669;-81
2022/12/14 02:10:01;;;;;;;0.10;0.10;;;-1.70;99.90;;;;;;5073385;28;20277;-80
2022/12/14 02:13:00;;;;;;;0.10;0.10;;;-1.60;99.90;;;;;;5054412;28;20243;-79
2022/12/14 02:15:27;;;;;;;0.00;0.00;;;-1.70;99.90;;;;;;5041088;28;20196;-80
2022/12/14 02:17:52;;;;;;;0.10;0.10;;;-1.60;99.90;;;;;;5073525;28;20212;-81
2022/12/14 02:20:20;;;;;;;0.10;0.10;;;-1.70;99.90;;;;;;5071533;28;20207;-81
2022/12/14 02:23:15;;;;;;;0.07;0.07;;;-1.70;99.90;;;;;;5054927;28;20894;-81
2022/12/14 02:25:48;;;;;;;0.10;0.10;;;-1.80;99.90;;;;;;5057450;28;20964;-80
2022/12/14 02:28:26;;;;;;;0.10;0.10;;;-1.70;99.90;;;;;;5055840;28;20229;-80
2022/12/14 02:31:05;;;;;;;1.93;1.80;;;-1.70;99.90;;;;;;5072762;28;20251;-80
2022/12/14 02:33:31;;;;;;;0.03;0.03;;;-1.70;99.90;;;;;;5056222;28;20238;-79
2022/12/14 02:35:56;;;;;;;0.83;0.83;;;-1.60;99.90;;;;;;5054681;28;20188;-81
2022/12/14 02:38:44;;;;;;;0.10;0.10;;;-1.70;99.90;;;;;;5069902;28;20211;-80
2022/12/14 02:41:38;;;;;;;0.10;0.10;;;-1.70;99.90;;;;;;5071226;28;20190;-80
2022/12/14 02:44:07;;;;;;;0.10;0.10;;;-1.80;99.90;;;;;;5055431;28;20551;-80
2022/12/14 02:46:35;;;;;;;0.10;0.10;;;-1.70;99.90;;;;;;5055545;28;20185;-81
2022/12/14 02:49:35;;;;;;;0.10;0.10;;;-1.80;99.90;;;;;;5056507;28;20315;-80
2022/12/14 02:52:08;;;;;;;0.10;0.10;;;-1.70;99.90;;;;;;5068374;28;20204;-80
2022/12/14 02:55:05;;;;;;;0.10;0.10;;;-1.80;99.90;;;;;;5072422;28;20189;-80
2022/12/14 02:57:45;;;;;;;0.10;0.10;;;-1.80;99.90;;;;;;5071549;28;20227;-80
2022/12/14 03:00:12;;;;;;;0.20;0.20;;;-1.80;99.90;;;;;;5071670;28;20204;-80
2022/12/14 03:02:40;;;;;;;0.10;0.10;;;-1.80;99.90;;;;;;5073122;28;20185;-79
2022/12/14 03:05:06;;;;;;;0.10;0.10;;;-1.70;99.90;;;;;;5056116;28;20212;-80
2022/12/14 03:07:45;;;;;;;0.10;0.10;;;-1.70;99.90;;;;;;5071003;28;20250;-80
2022/12/14 03:10:20;;;;;;;0.10;0.10;;;-1.80;99.90;;;;;;5053892;28;20198;-79
2022/12/14 03:12:52;;;;;;;0.10;0.10;;;-1.80;99.90;;;;;;5071587;28;20683;-81
2022/12/14 03:15:20;;;;;;;0.10;0.10;;;-1.80;99.90;;;;;;5055686;28;20189;-79
2022/12/14 03:17:50;;;;;;;0.10;0.10;;;-1.90;99.90;;;;;;5056300;28;20690;-80
2022/12/14 03:20:22;;;;;;;0.10;0.10;;;-1.80;99.90;;;;;;5055240;28;20270;-80
2022/12/14 03:22:59;;;;;;;0.07;0.07;;;-1.80;99.90;;;;;;5070303;28;20208;-80
2022/12/14 03:25:31;;;;;;;0.10;0.10;;;-1.80;99.90;;;;;;5069514;28;20562;-81
2022/12/14 03:28:05;;;;;;;0.10;0.10;;;-1.80;99.90;;;;;;5055338;28;20219;-80
2022/12/14 03:30:34;;;;;;;0.00;0.00;;;-1.90;99.90;;;;;;5054371;28;20189;-79
2022/12/14 03:33:06;;;;;;;0.10;0.10;;;-1.90;99.90;;;;;;5052940;28;20194;-79
2022/12/14 03:35:38;;;;;;;2.63;2.53;;;-1.90;99.90;;;;;;5053426;28;20265;-80
2022/12/14 03:38:15;;;;;;;0.00;0.00;;;-1.90;99.90;;;;;;5053623;28;20205;-80
2022/12/14 03:41:11;;;;;;;0.10;0.10;;;-1.90;99.90;;;;;;5070759;28;20197;-80
2022/12/14 03:43:40;;;;;;;0.10;0.10;;;-1.90;99.90;;;;;;5057126;28;20732;-80
2022/12/14 03:46:14;;;;;;;0.10;0.10;;;-1.90;99.90;;;;;;5053939;28;20240;-81
2022/12/14 03:48:50;;;;;;;0.10;0.10;;;-2.00;99.90;;;;;;5087137;28;20210;-80
2022/12/14 03:51:22;;;;;;;0.10;0.10;;;-2.00;99.90;;;;;;5053099;28;20177;-80
2022/12/14 03:54:07;;;;;;;0.10;0.10;;;-2.00;99.90;;;;;;5071612;28;20195;-80
2022/12/14 03:57:04;;;;;;;0.10;0.10;;;-1.90;99.90;;;;;;5054894;28;20680;-81
2022/12/14 03:59:32;;;;;;;0.10;0.10;;;-1.80;99.90;;;;;;5053065;28;20216;-80
2022/12/14 04:02:29;;;;;;;0.10;0.10;;;-1.90;99.90;;;;;;5053979;28;20196;-81
2022/12/14 04:05:00;;;;;;;0.10;0.10;;;-1.70;99.90;;;;;;5054392;28;20187;-81
2022/12/14 04:08:05;;;;;;;0.00;0.00;;;-1.90;99.90;;;;;;5053665;28;20567;-79
2022/12/14 04:19:23;;;;;;;0.00;0.00;;;-1.80;99.90;;;;;;5054582;28;20247;-81
2022/12/14 04:22:01;;;;;;;2.63;2.53;;;-1.80;99.90;;;;;;5054493;28;20217;-80
2022/12/14 04:28:05;;;;;;;0.10;0.10;;;-1.70;99.90;;;;;;5055643;28;20844;-80
2022/12/14 04:30:36;;;;;;;0.00;0.00;;;-1.70;99.90;;;;;;5059583;28;20206;-81
2022/12/14 04:35:53;;;;;;;0.10;0.10;;;-1.80;99.90;;;;;;5060008;28;20291;-81
2022/12/14 04:38:32;;;;;;;0.10;0.10;;;-1.80;99.90;;;;;;5065504;28;20747;-78
2022/12/14 04:41:10;;;;;;;2.53;2.37;;;-1.80;99.90;;;;;;5054529;28;20201;-79
2022/12/14 04:43:40;;;;;;;0.10;0.10;;;-1.80;99.90;;;;;;5051450;28;20187;-82
2022/12/14 04:46:14;;;;;;;0.30;0.30;;;-1.80;99.90;;;;;;5072853;28;20188;-79
2022/12/14 04:49:06;;;;;;;0.10;0.10;;;-1.80;99.90;;;;;;5057038;28;20196;-79
2022/12/14 04:51:45;;;;;;;0.10;0.10;;;-1.80;99.90;;;;;;5074582;28;20177;-78
2022/12/14 04:54:24;;;;;;;0.10;0.10;;;-1.80;99.90;;;;;;5054784;28;20180;-78
2022/12/14 04:57:03;;;;;;;0.10;0.10;;;-1.80;99.90;;;;;;5071167;28;20278;-79
2022/12/14 04:59:29;;;;;;;0.10;0.10;;;-1.70;99.90;;;;;;5053332;28;20204;-78
2022/12/14 05:01:55;;;;;;;2.97;2.77;;;-1.50;99.90;;;;;;5052798;28;20180;-78
2022/12/14 05:04:39;;;;;;;0.00;0.00;;;-1.60;99.90;;;;;;5069309;28;20559;-78
2022/12/14 05:07:17;;;;;;;0.10;0.10;;;-1.60;99.90;;;;;;5070491;28;20186;-79
2022/12/14 05:10:04;;;;;;;0.10;0.10;;;-1.70;99.90;;;;;;5068069;28;20357;-79
2022/12/14 05:12:41;;;;;;;0.10;0.10;;;-1.70;99.90;;;;;;5052993;28;20181;-79
2022/12/14 05:15:10;;;;;;;0.10;0.10;;;-1.70;99.90;;;;;;5071005;28;20203;-79
2022/12/14 05:17:37;;;;;;;0.10;0.10;;;-1.60;99.90;;;;;;5055857;28;20259;-78
2022/12/14 05:20:03;;;;;;;0.10;0.10;;;-1.60;99.90;;;;;;5071666;28;20276;-79
2022/12/14 05:22:29;;;;;;;0.10;0.10;;;-1.50;99.90;;;;;;5067446;28;20682;-79
2022/12/14 05:24:54;;;;;;;0.10;0.10;;;-1.60;99.90;;;;;;5054099;28;20201;-79
2022/12/14 05:27:20;;;;;;;0.10;0.10;;;-1.60;99.90;;;;;;5069923;28;20206;-78
2022/12/14 05:29:45;;;;;;;0.10;0.10;;;-1.60;99.90;;;;;;5070619;28;20216;-79
2022/12/14 05:32:12;;;;;;;0.10;0.10;;;-1.40;99.90;;;;;;5057034;28;20242;-78
2022/12/14 05:34:37;;;;;;;0.10;0.10;;;-1.50;99.90;;;;;;5055310;28;20188;-79
2022/12/14 05:37:03;;;;;;;0.10;0.10;;;-1.40;99.90;;;;;;5071957;28;20204;-79
2022/12/14 05:39:29;;;;;;;0.10;0.10;;;-1.50;99.90;;;;;;5054586;28;20285;-78
2022/12/14 05:41:54;;;;;;;0.10;0.10;;;-1.60;99.90;;;;;;5071227;28;20178;-79
2022/12/14 05:44:20;;;;;;;0.10;0.10;;;-1.50;99.90;;;;;;5070056;28;20192;-80
2022/12/14 05:46:46;;;;;;;0.10;0.10;;;-1.50;99.90;;;;;;5072279;28;20177;-80
2022/12/14 05:49:12;;;;;;;0.10;0.10;;;-1.50;99.90;;;;;;5071700;28;20498;-80
2022/12/14 05:51:37;;;;;;;0.17;0.17;;;-1.50;99.90;;;;;;5072276;28;20184;-80
2022/12/14 05:54:04;;;;;;;0.10;0.10;;;-1.50;99.90;;;;;;5072252;28;20592;-79
2022/12/14 05:56:30;;;;;;;0.10;0.10;;;-1.50;99.90;;;;;;5070006;28;20192;-79
2022/12/14 05:58:55;;;;;;;0.10;0.10;;;-1.60;99.90;;;;;;5054678;28;20984;-78
2022/12/14 06:01:21;;;;;;;0.17;0.17;;;-1.60;99.90;;;;;;5054021;28;20220;-79
2022/12/14 06:03:47;;;;;;;0.10;0.10;;;-1.60;99.90;;;;;;5053649;28;20185;-79
2022/12/14 06:06:13;;;;;;;0.10;0.10;;;-1.60;99.90;;;;;;5055539;28;20200;-79
2022/12/14 06:08:42;;;;;;;0.00;0.00;;;-1.60;99.90;;;;;;5054691;28;20197;-79
2022/12/14 06:11:10;;;;;;;0.10;0.10;;;-1.60;99.90;;;;;;5054208;28;20193;-79
2022/12/14 06:13:37;;;;;;;0.10;0.10;;;-1.60;99.90;;;;;;5053402;28;20234;-79
2022/12/14 06:16:15;;;;;;;0.10;0.10;;;-1.50;99.90;;;;;;5055216;28;20201;-79
2022/12/14 06:18:45;;;;;;;0.10;0.10;;;-1.30;99.90;;;;;;5071521;28;20258;-84
2022/12/14 06:21:15;;;;;;;0.10;0.10;;;-1.50;99.90;;;;;;5055851;28;20256;-81
2022/12/14 06:23:41;;;;;;;0.10;0.10;;;-1.60;99.90;;;;;;5054226;28;20181;-81
2022/12/14 06:26:08;;;;;;;0.00;0.00;;;-1.60;99.90;;;;;;5068592;28;20201;-80
2022/12/14 06:28:34;;;;;;;0.10;0.10;;;-1.50;99.90;;;;;;5070606;28;20215;-79
2022/12/14 06:31:01;;;;;;;0.10;0.10;;;-1.50;99.90;;;;;;5054997;28;20289;-80
2022/12/14 06:33:27;;;;;;;0.10;0.10;;;-1.50;99.90;;;;;;5067184;28;20190;-79
2022/12/14 06:35:52;;;;;;;0.10;0.10;;;-1.60;99.90;;;;;;5050443;28;20190;-80
2022/12/14 06:38:19;;;;;;;0.10;0.10;;;-1.50;99.90;;;;;;5051210;28;20744;-80
2022/12/14 06:40:44;;;;;;;0.10;0.10;;;-1.50;99.90;;;;;;5055114;28;20294;-81
2022/12/14 06:43:10;;;;;;;0.10;0.10;;;-1.50;99.90;;;;;;5069707;28;20188;-81
2022/12/14 06:45:37;;;;;;;0.10;0.10;;;-1.60;99.90;;;;;;5070103;28;20239;-81
2022/12/14 06:48:03;;;;;;;0.10;0.10;;;-1.60;99.90;;;;;;5055235;28;20203;-80
2022/12/14 06:50:28;;;;;;;0.10;0.10;;;-1.60;99.90;;;;;;5067424;28;20246;-80
2022/12/14 06:52:54;;;;;;;0.10;0.10;;;-1.60;99.90;;;;;;5068289;28;20187;-80
2022/12/14 06:55:20;;;;;;;7.00;6.53;;;-1.60;99.90;;;;;;5055282;28;20204;-81
2022/12/14 06:57:48;;;;;;;0.10;0.10;;;-1.60;99.90;;;;;;5055729;28;20221;-82
2022/12/14 07:00:14;;;;;;;0.10;0.10;;;-1.60;99.90;;;;;;5070073;28;20209;-82
2022/12/14 07:02:40;;;;;;;3.33;3.03;;;-1.50;99.90;;;;;;5068819;28;20379;-80
2022/12/14 07:05:06;;;;;;;0.10;0.10;;;-1.60;99.90;;;;;;5071060;28;20208;-80
2022/12/14 07:07:33;;;;;;;16.67;8.17;;;-1.60;99.90;;;;;;5052450;28;20256;-80
2022/12/14 07:09:59;;;;;;;0.10;0.10;;;-1.50;99.90;;;;;;5049936;28;20196;-79
2022/12/14 07:12:26;;;;;;;0.30;0.30;;;-1.40;99.90;;;;;;5066224;28;20197;-80
2022/12/14 07:14:52;;;;;;;0.10;0.10;;;-1.50;99.90;;;;;;5066206;28;20200;-80
2022/12/14 07:17:18;;;;;;;0.20;0.20;;;-1.60;99.90;;;;;;5051674;28;20213;-80
2022/12/14 07:19:43;;;;;;;0.10;0.10;;;-1.60;99.90;;;;;;5052125;28;20209;-80
2022/12/14 07:22:09;;;;;;;0.10;0.10;;;-1.60;99.90;;;;;;5068354;28;20199;-81
2022/12/14 07:24:34;;;;;;;0.10;0.10;;;-1.60;99.90;;;;;;5068983;28;20696;-81
2022/12/14 07:27:00;;;;;;;0.10;0.10;;;-1.50;99.90;;;;;;5068121;28;20810;-82
2022/12/14 07:29:25;;;;;;;0.00;0.00;;;-1.50;99.90;;;;;;5064785;28;20285;-80
2022/12/14 07:31:51;;;;;;;0.20;0.20;;;-1.60;99.90;;;;;;5065592;28;20256;-79
2022/12/14 07:34:16;;;;;;;0.10;0.10;;;-1.60;99.90;;;;;;5054903;28;20227;-80
2022/12/14 07:36:42;;;;;;;0.10;0.10;;;-1.50;99.90;;;;;;5067217;28;20186;-80
2022/12/14 07:39:13;;;;;;;0.10;0.10;;;-1.40;99.90;;;;;;5068693;28;20209;-81
2022/12/14 07:41:38;;;;;;;0.10;0.10;;;-1.40;99.90;;;;;;5069328;28;20193;-80
2022/12/14 07:44:04;;;;;;;0.10;0.10;;;-1.40;99.90;;;;;;5065886;28;20189;-79
2022/12/14 07:46:30;;;;;;;0.10;0.10;;;-1.40;99.90;;;;;;5053237;28;20565;-80
2022/12/14 07:48:57;;;;;;;0.10;0.10;;;-1.50;99.90;;;;;;5055026;28;20209;-78
2022/12/14 07:51:26;;;;;;;0.10;0.10;;;-1.50;99.90;;;;;;5053677;28;20715;-80
2022/12/14 07:53:53;;;;;;;0.10;0.10;;;-1.50;99.90;;;;;;5068946;28;20208;-80
2022/12/14 07:56:22;;;;;;;0.10;0.10;;;-1.30;99.90;;;;;;5068902;28;20290;-79
2022/12/14 07:58:47;;;;;;;0.10;0.10;;;-1.20;99.90;;;;;;5051033;28;20282;-80
2022/12/14 08:01:14;;;;;;;0.10;0.10;;;-1.30;99.90;;;;;;5066771;28;20193;-80
2022/12/14 08:03:42;;;;;;;0.10;0.10;;;-1.30;99.90;;;;;;5066675;28;20196;-80
2022/12/14 08:06:10;;;;;;;0.10;0.10;;;-1.30;99.90;;;;;;5066568;28;20181;-81
2022/12/14 08:08:36;;;;;;;0.10;0.10;;;-1.30;99.90;;;;;;5049782;28;20694;-81
2022/12/14 08:11:02;;;;;;;0.10;0.10;;;-1.30;99.90;;;;;;5066982;28;20276;-81
2022/12/14 08:13:28;;;;;;;0.10;0.10;;;-1.40;99.90;;;;;;5065459;28;20189;-80
2022/12/14 08:15:54;;;;;;;0.10;0.10;;;-1.30;99.90;;;;;;5068618;28;20744;-81
2022/12/14 08:18:20;;;;;;;0.10;0.10;;;-1.40;99.90;;;;;;5065935;28;20304;-80
2022/12/14 08:20:50;;;;;;;0.10;0.10;;;-1.40;99.90;;;;;;5049641;28;20213;-80
2022/12/14 08:23:16;;;;;;;0.10;0.10;;;-1.60;99.90;;;;;;5067700;28;20285;-81
2022/12/14 08:25:42;;;;;;;0.10;0.10;;;-1.70;99.90;;;;;;5067031;28;20677;-79
2022/12/14 08:28:08;;;;;;;0.10;0.10;;;-1.80;99.90;;;;;;5047416;28;20201;-81
2022/12/14 08:30:37;;;;;;;0.10;0.10;;;-1.70;99.90;;;;;;5046494;28;20272;-81
2022/12/14 08:33:03;;;;;;;0.10;0.10;;;-1.70;99.90;;;;;;5065604;28;20190;-81
2022/12/14 08:35:31;;;;;;;0.10;0.10;;;-1.80;99.90;;;;;;5051366;28;20195;-81
2022/12/14 08:37:57;;;;;;;0.10;0.10;;;-1.80;99.90;;;;;;5064916;28;20312;-81
2022/12/14 08:40:23;;;;;;;0.10;0.10;;;-1.80;99.90;;;;;;5050208;28;20368;-81
2022/12/14 08:42:49;;;;;;;0.10;0.10;;;-1.80;99.90;;;;;;5062878;28;20189;-81
2022/12/14 08:45:15;;;;;;;0.10;0.10;;;-1.80;99.90;;;;;;5066395;28;20268;-81
2022/12/14 08:47:41;;;;;;;0.43;0.43;;;-1.70;99.90;;;;;;5052632;28;20255;-81
2022/12/14 08:50:07;;;;;;;0.10;0.10;;;-1.80;99.90;;;;;;5062245;28;20189;-81
2022/12/14 08:52:33;;;;;;;0.10;0.10;;;-1.90;99.90;;;;;;5050875;28;20216;-81
2022/12/14 08:54:59;;;;;;;0.00;0.00;;;-1.80;99.90;;;;;;5067063;28;20182;-80
2022/12/14 08:57:24;;;;;;;2.13;2.03;;;-1.90;99.90;;;;;;5066310;28;20753;-81
2022/12/14 08:59:50;;;;;;;0.10;0.10;;;-1.90;99.90;;;;;;5067836;28;20208;-81
2022/12/14 09:02:15;;;;;;;0.10;0.10;;;-1.80;99.90;;;;;;5063369;28;20550;-81
2022/12/14 09:04:41;;;;;;;0.10;0.10;;;-2.00;99.90;;;;;;5063487;28;20197;-80
2022/12/14 09:07:06;;;;;;;0.10;0.10;;;-1.90;99.90;;;;;;5063752;28;20189;-80
2022/12/14 09:09:36;;;;;;;0.10;0.10;;;-1.80;99.90;;;;;;5062459;28;20185;-81
2022/12/14 09:12:05;;;;;;;0.10;0.10;;;-1.80;99.90;;;;;;5051333;28;20189;-81
2022/12/14 09:14:31;;;;;;;0.10;0.10;;;-1.80;99.90;;;;;;5052782;28;20283;-80
2022/12/14 09:16:57;;;;;;;0.10;0.10;;;-1.80;99.90;;;;;;5056149;28;20242;-80
2022/12/14 09:19:23;;;;;;;0.10;0.10;;;-1.80;99.90;;;;;;5067812;28;20259;-81
2022/12/14 09:21:48;;;;;;;0.10;0.10;;;-1.80;99.90;;;;;;5069178;28;20186;-79
2022/12/14 09:24:14;;;;;;;0.10;0.10;;;-1.70;99.90;;;;;;5070778;28;20182;-80
2022/12/14 09:26:39;;;;;;;0.10;0.10;;;-1.50;99.90;;;;;;5053697;28;20252;-80
2022/12/14 09:29:05;;;;;;;0.10;0.10;;;-1.50;99.90;;;;;;5069051;28;20200;-81
2022/12/14 09:31:31;;;;;;;0.10;0.10;;;-1.50;99.90;;;;;;5070781;28;20260;-81
2022/12/14 09:33:56;;;;;;;0.00;0.00;;;-1.70;99.90;;;;;;5054396;28;20188;-80
2022/12/14 09:36:24;;;;;;;0.33;0.33;;;-1.80;99.90;;;;;;5070074;28;20269;-81
2022/12/14 09:38:50;;;;;;;0.10;0.10;;;-1.80;99.90;;;;;;5053007;28;20212;-81
2022/12/14 09:41:32;;;;;;;0.00;0.00;;;-1.70;99.90;;;;;;5054121;28;20238;-80
2022/12/14 09:44:12;;;;;;;0.10;0.10;;;-1.70;99.90;;;;;;5051700;28;20219;-86
2022/12/14 09:46:46;;;;;;;0.10;0.10;;;-1.70;99.90;;;;;;5053002;28;20188;-82
2022/12/14 09:49:24;;;;;;;0.10;0.10;;;-1.70;99.90;;;;;;5055018;28;20204;-81
2022/12/14 09:51:52;;;;;;;0.10;0.10;;;-1.60;99.90;;;;;;5070424;28;20228;-81
2022/12/14 09:54:24;;;;;;;0.10;0.10;;;-1.50;99.90;;;;;;5070398;28;20196;-82
2022/12/14 09:56:52;;;;;;;0.10;0.10;;;-1.60;99.90;;;;;;5054376;28;20726;-81
2022/12/14 09:59:19;;;;;;;0.10;0.10;;;-1.60;99.90;;;;;;5068267;28;20226;-85
2022/12/14 10:02:08;;;;;;;0.10;0.10;;;-1.60;99.90;;;;;;5056751;28;20193;-81
2022/12/14 10:04:58;;;;;;;0.10;0.10;;;-1.50;99.90;;;;;;5053292;28;20189;-81
2022/12/14 10:07:47;;;;;;;0.10;0.10;;;-1.40;99.90;;;;;;5068663;28;20204;-80
2022/12/14 10:10:23;;;;;;;0.10;0.10;;;-1.40;99.90;;;;;;5052550;28;20185;-81
2022/12/14 10:13:11;;;;;;;0.10;0.10;;;-1.50;99.90;;;;;;5051987;28;20261;-81
2022/12/14 10:15:45;;;;;;;0.10;0.10;;;-1.40;99.90;;;;;;5068796;28;20729;-81
2022/12/14 10:18:21;;;;;;;0.10;0.10;;;-1.30;99.90;;;;;;5070214;28;21146;-81
2022/12/14 10:21:11;;;;;;;0.10;0.10;;;-1.20;99.90;;;;;;5069524;28;20413;-81
2022/12/14 10:23:44;;;;;;;0.10;0.10;;;-1.20;99.90;;;;;;5068613;28;20192;-81
2022/12/14 10:26:15;;;;;;;0.10;0.10;;;-1.20;99.90;;;;;;5052979;28;20195;-80
2022/12/14 10:28:51;;;;;;;0.10;0.10;;;-1.00;99.90;;;;;;5053291;28;21226;-81
2022/12/14 10:31:28;;;;;;;0.10;0.10;;;-1.00;99.90;;;;;;5050891;28;20268;-81
2022/12/14 10:33:58;;;;;;;0.10;0.10;;;-1.00;99.90;;;;;;5053032;28;20216;-80
2022/12/14 10:36:35;;;;;;;0.10;0.10;;;-0.90;99.90;;;;;;5053216;28;20238;-81
2022/12/14 10:39:14;;;;;;;11.23;10.63;;;-1.00;99.90;;;;;;5050956;28;20218;-80
2022/12/14 10:41:48;;;;;;;0.10;0.10;;;-0.80;99.90;;;;;;5051086;28;20189;-81
2022/12/14 10:44:33;;;;;;;0.10;0.10;;;-0.80;99.90;;;;;;5066285;28;20264;-81
2022/12/14 10:47:23;;;;;;;0.10;0.10;;;-0.70;99.90;;;;;;5052618;28;20236;-82
2022/12/14 10:50:01;;;;;;;0.20;0.20;;;-0.90;99.90;;;;;;5051429;28;20289;-81
2022/12/14 10:52:35;;;;;;;0.10;0.10;;;-0.80;99.90;;;;;;5067242;28;20547;-81
2022/12/14 10:55:12;;;;;;;0.10;0.10;;;-0.90;99.90;;;;;;5052199;28;20189;-81
2022/12/14 10:57:38;;;;;;;0.10;0.10;;;-0.80;99.90;;;;;;5049271;28;20236;-81
2022/12/14 11:00:13;;;;;;;0.10;0.10;;;-0.60;99.90;;;;;;5054740;28;20568;-82
2022/12/14 11:02:42;;;;;;;0.10;0.10;;;-0.50;99.90;;;;;;5069919;28;20234;-82
2022/12/14 11:05:33;;;;;;;0.10;0.10;;;-0.60;99.90;;;;;;5052073;28;20181;-81
2022/12/14 11:07:59;;;;;;;0.10;0.10;;;-0.60;99.90;;;;;;5068614;28;20205;-81
2022/12/14 11:10:28;;;;;;;0.10;0.10;;;-0.80;99.90;;;;;;5067516;28;20274;-81
2022/12/14 11:13:06;;;;;;;0.10;0.10;;;-0.80;99.90;;;;;;5052034;28;20199;-81
2022/12/14 11:15:38;;;;;;;0.10;0.10;;;-0.70;99.90;;;;;;5069872;28;20188;-82
2022/12/14 11:18:16;;;;;;;0.10;0.10;;;-0.80;99.90;;;;;;5049480;28;20694;-81
2022/12/14 11:20:49;;;;;;;0.10;0.10;;;-0.70;99.90;;;;;;5069556;28;20239;-81
2022/12/14 11:23:20;;;;;;;0.10;0.10;;;-0.50;99.90;;;;;;5067687;28;20212;-81
2022/12/14 11:25:49;;;;;;;0.00;0.00;;;-0.50;99.90;;;;;;5067850;28;20193;-81
2022/12/14 11:28:47;;;;;;;0.10;0.10;;;-0.60;99.90;;;;;;5065337;28;20205;-80
2022/12/14 11:31:36;;;;;;;0.10;0.10;;;-0.70;99.90;;;;;;5066317;28;20205;-81
2022/12/14 11:34:04;;;;;;;0.00;0.00;;;-0.60;99.90;;;;;;5048821;28;20666;-82
2022/12/14 11:36:35;;;;;;;0.10;0.10;;;-0.70;99.90;;;;;;5050514;28;20205;-81
2022/12/14 11:39:12;;;;;;;1.07;1.07;;;-0.70;99.90;;;;;;5051558;28;20224;-81
2022/12/14 11:41:41;;;;;;;0.10;0.10;;;-0.60;99.90;;;;;;5066727;28;20183;-82
2022/12/14 11:44:13;;;;;;;0.10;0.10;;;-0.60;99.90;;;;;;5064470;28;20178;-82
2022/12/14 11:46:57;;;;;;;0.10;0.10;;;-0.80;99.90;;;;;;5066240;28;20203;-81
2022/12/14 11:49:24;;;;;;;0.00;0.00;;;-0.80;99.90;;;;;;5067131;28;20553;-81
2022/12/14 11:52:16;;;;;;;0.10;0.10;;;-0.70;99.90;;;;;;5067555;28;20200;-81
2022/12/14 11:54:47;;;;;;;0.10;0.10;;;-0.50;99.90;;;;;;5060613;28;20238;-81
2022/12/14 11:57:12;;;;;;;0.10;0.10;;;-0.20;99.90;;;;;;5059329;28;20209;-81
2022/12/14 11:59:46;;;;;;;0.10;0.10;;;-0.30;99.90;;;;;;5065022;28;20255;-81
2022/12/14 12:02:16;;;;;;;0.10;0.10;;;0.00;99.90;;;;;;5049464;28;20186;-81
2022/12/14 12:04:46;;;;;;;0.10;0.10;;;0.00;99.90;;;;;;5051752;28;20205;-81
2022/12/14 12:07:33;;;;;;;0.10;0.10;;;0.40;99.90;;;;;;5051896;28;20696;-81
2022/12/14 12:10:02;;;;;;;0.10;0.10;;;0.00;99.90;;;;;;5052814;28;20180;-81
2022/12/14 12:12:28;;;;;;;0.10;0.10;;;0.10;99.90;;;;;;5067358;28;20272;-81
2022/12/14 12:14:55;;;;;;;0.10;0.10;;;0.20;99.90;;;;;;5053843;28;20253;-81
2022/12/14 12:17:40;;;;;;;0.10;0.10;;;0.20;99.90;;;;;;5051886;28;20198;-81
2022/12/14 12:20:34;;;;;;;0.00;0.00;;;0.40;99.90;;;;;;5051382;28;20571;-81
2022/12/14 12:23:11;;;;;;;0.10;0.10;;;0.60;99.90;;;;;;5047237;28;20199;-81
2022/12/14 12:25:39;;;;;;;0.10;0.10;;;0.30;99.90;;;;;;5066018;28;20186;-83
2022/12/14 12:28:37;;;;;;;0.10;0.10;;;0.60;99.90;;;;;;5062114;28;20197;-83
2022/12/14 12:31:10;;;;;;;0.10;0.10;;;0.40;99.90;;;;;;5051291;28;21117;-83
2022/12/14 12:33:58;;;;;;;0.83;0.83;;;0.50;99.90;;;;;;5052118;28;20190;-83
2022/12/14 12:36:24;;;;;;;0.10;0.10;;;0.00;99.90;;;;;;5065560;28;20196;-83
2022/12/14 12:39:05;;;;;;;0.10;0.10;;;-0.30;99.90;;;;;;5066806;28;20232;-80
2022/12/14 12:41:31;;;;;;;0.10;0.10;;;-0.30;99.90;;;;;;5049613;28;20185;-81
2022/12/14 12:44:22;;;;;;;0.10;0.10;;;-0.40;99.90;;;;;;5062084;28;20177;-80
2022/12/14 12:47:28;;;;;;;0.23;0.23;;;-0.30;99.90;;;;;;5065513;28;20757;-81
2022/12/14 12:49:59;;;;;;;0.10;0.10;;;-0.50;99.90;;;;;;5055906;28;20197;-80
2022/12/14 12:52:30;;;;;;;0.10;0.10;;;-0.30;99.90;;;;;;5053983;28;20185;-80
2022/12/14 12:54:59;;;;;;;0.00;0.00;;;-0.20;99.90;;;;;;5069353;28;20555;-81
2022/12/14 12:57:29;;;;;;;1.30;1.30;;;0.00;99.90;;;;;;5055235;28;20591;-80
2022/12/14 12:59:56;;;;;;;0.00;0.00;;;0.30;99.90;;;;;;5056118;28;20209;-81
2022/12/14 13:02:34;;;;;;;0.10;0.10;;;0.40;99.90;;;;;;5053169;28;20204;-80
2022/12/14 13:05:13;;;;;;;0.10;0.10;;;0.30;99.90;;;;;;5072843;28;20184;-80
2022/12/14 13:07:48;;;;;;;0.10;0.10;;;0.50;99.90;;;;;;5070402;28;20208;-80
2022/12/14 13:10:24;;;;;;;0.07;0.07;;;0.60;99.90;;;;;;5051940;28;20276;-81
2022/12/14 13:12:59;;;;;;;0.10;0.10;;;0.60;99.90;;;;;;5070866;28;20185;-80
2022/12/14 13:15:38;;;;;;;0.10;0.10;;;0.60;99.90;;;;;;5051924;28;20185;-81
2022/12/14 13:18:11;;;;;;;0.10;0.10;;;0.40;99.90;;;;;;5070348;28;20207;-81
2022/12/14 13:20:37;;;;;;;0.00;0.00;;;0.80;99.90;;;;;;5056078;28;20201;-80
2022/12/14 13:23:03;;;;;;;0.10;0.10;;;0.50;99.90;;;;;;5068904;28;20207;-81
2022/12/14 13:25:47;;;;;;;0.10;0.10;;;0.70;99.90;;;;;;5053281;28;20177;-80
2022/12/14 13:28:32;;;;;;;0.10;0.10;;;0.90;99.90;;;;;;5069440;28;20205;-81